Terminal Aerodrome Forecast
Issued by NWS

Home | Current Version | Previous Version | Text Only | Print | Product List | Glossary On
Versions: 1 2 3 4 5 6 7 8 9 10 11 12 13 14
000
FTUS45 KRIW 231300 AAA
TAFCOD
TAF AMD
KCOD 231325Z 2313/2412 VRB05KT P6SM VCSH SCT005 BKN010
     FM231700 02012G18KT 6SM -SHRA VCTS SCT015 OVC030CB
     FM240200 35010KT 5SM -SHRA BR SCT008 OVC025
      AMD LTD TO CLD VIS AND WIND=

USA.gov is the U.S. government's official web portal to all federal, state and local government web resources and services.